createdAt,value
2022-10-06T00:01:32.500Z,6.32
2022-10-06T00:04:00.868Z,7.13
2022-10-06T00:06:29.176Z,5.57
2022-10-06T00:08:57.526Z,8.98
2022-10-06T00:11:25.817Z,8.52
2022-10-06T00:13:54.158Z,6.60
2022-10-06T00:16:24.395Z,9.75
2022-10-06T00:18:52.998Z,6.45
2022-10-06T00:21:21.315Z,5.82
2022-10-06T00:23:49.653Z,6.63
2022-10-06T00:26:17.975Z,7.25
2022-10-06T00:28:47.928Z,8.48
2022-10-06T00:31:16.511Z,9.30
2022-10-06T00:33:46.235Z,5.35
2022-10-06T00:36:15.865Z,6.55
2022-10-06T00:38:44.195Z,4.80
2022-10-06T00:41:14.265Z,9.80
2022-10-06T00:43:50.751Z,7.28
2022-10-06T00:46:24.868Z,7.00
2022-10-06T00:48:57.442Z,6.20
2022-10-06T00:51:25.769Z,6.07
2022-10-06T00:53:54.202Z,5.55
2022-10-06T00:56:22.522Z,6.90
2022-10-06T00:58:51.173Z,8.23
2022-10-06T01:01:19.549Z,8.90
2022-10-06T01:03:50.789Z,5.75
2022-10-06T01:06:20.824Z,5.82
2022-10-06T01:08:49.565Z,8.90
2022-10-06T01:11:17.871Z,11.07
2022-10-06T01:13:47.094Z,8.57
2022-10-06T01:16:19.066Z,6.93
2022-10-06T01:18:48.838Z,5.85
2022-10-06T01:21:20.134Z,9.70
2022-10-06T01:23:50.970Z,8.48
2022-10-06T01:26:20.334Z,6.68
2022-10-06T01:28:49.892Z,7.95
2022-10-06T01:31:18.757Z,6.90
2022-10-06T01:33:47.175Z,6.85
2022-10-06T01:36:15.491Z,10.82
2022-10-06T01:38:43.820Z,8.57
2022-10-06T01:41:13.744Z,7.55
2022-10-06T01:43:43.327Z,7.63
2022-10-06T01:46:11.969Z,6.35
2022-10-06T01:48:42.060Z,5.07
2022-10-06T01:51:14.198Z,6.80
2022-10-06T01:53:42.659Z,6.25
2022-10-06T01:56:11.633Z,5.88
2022-10-06T01:58:41.948Z,9.55
2022-10-06T02:01:11.454Z,7.05
2022-10-06T02:03:40.396Z,8.75
2022-10-06T02:06:10.635Z,6.95
2022-10-06T02:08:39.411Z,11.10
2022-10-06T02:11:09.962Z,6.70
2022-10-06T02:13:43.909Z,8.13
2022-10-06T02:16:13.974Z,6.38
2022-10-06T02:18:44.060Z,6.78
2022-10-06T02:21:15.573Z,9.23
2022-10-06T02:23:44.449Z,7.85
2022-10-06T02:26:13.245Z,7.18
2022-10-06T02:28:41.674Z,8.82
2022-10-06T02:31:15.351Z,8.30
2022-10-06T02:33:44.727Z,6.55
2022-10-06T02:36:14.085Z,5.88
2022-10-06T02:38:42.540Z,7.85
2022-10-06T02:41:11.197Z,10.90
2022-10-06T02:43:40.300Z,9.45
2022-10-06T02:46:11.954Z,10.85
2022-10-06T02:48:44.393Z,8.35
2022-10-06T02:51:16.095Z,10.55
2022-10-06T02:53:46.384Z,5.50
2022-10-06T02:56:16.242Z,8.90
2022-10-06T02:58:45.104Z,6.05
2022-10-06T03:01:19.593Z,4.35
2022-10-06T03:03:49.319Z,6.43
2022-10-06T03:06:23.233Z,5.45
2022-10-06T03:08:59.215Z,3.95
2022-10-06T03:11:28.287Z,3.83
2022-10-06T03:13:57.054Z,4.28
2022-10-06T03:16:26.860Z,5.03
2022-10-06T03:18:57.605Z,5.55
2022-10-06T03:21:27.761Z,2.17
2022-10-06T03:23:56.419Z,1.95
2022-10-06T03:26:28.145Z,2.72
2022-10-06T03:28:57.536Z,2.67
2022-10-06T03:31:26.918Z,2.97
2022-10-06T03:33:57.822Z,1.67
2022-10-06T03:36:30.050Z,2.38
2022-10-06T03:38:58.396Z,3.30
2022-10-06T03:41:28.268Z,2.15
2022-10-06T03:43:57.942Z,1.73
2022-10-06T03:46:27.504Z,1.85
2022-10-06T03:48:57.130Z,2.65
2022-10-06T03:51:29.466Z,3.83
2022-10-06T03:53:58.810Z,1.77
2022-10-06T03:56:29.445Z,2.25
2022-10-06T03:58:59.521Z,1.95
2022-10-06T04:01:30.409Z,1.27
2022-10-06T04:03:59.472Z,4.95
2022-10-06T04:06:30.847Z,1.23
2022-10-06T04:08:59.471Z,2.90
2022-10-06T04:11:29.282Z,4.70
2022-10-06T04:14:00.039Z,2.75
2022-10-06T04:16:31.022Z,2.05
2022-10-06T04:19:00.376Z,4.28
2022-10-06T04:21:30.703Z,3.10
2022-10-06T04:24:00.435Z,3.75
2022-10-06T04:26:30.481Z,3.08
2022-10-06T04:29:00.498Z,5.78
2022-10-06T04:31:30.434Z,2.13
2022-10-06T04:33:59.453Z,2.72
2022-10-06T04:36:31.264Z,1.42
2022-10-06T04:39:00.372Z,2.30
2022-10-06T04:41:32.676Z,2.65
2022-10-06T04:44:02.065Z,2.15
2022-10-06T04:46:42.680Z,1.95
2022-10-06T04:49:17.952Z,3.35
2022-10-06T04:51:49.788Z,3.30
2022-10-06T04:54:19.541Z,3.40
2022-10-06T04:56:50.848Z,2.55
2022-10-06T04:59:41.406Z,3.20
2022-10-06T05:02:10.763Z,3.63
2022-10-06T05:04:39.552Z,3.08
2022-10-06T05:07:09.613Z,2.33
2022-10-06T05:09:38.510Z,2.92
2022-10-06T05:12:08.897Z,2.85
2022-10-06T05:14:37.220Z,3.95
2022-10-06T05:17:06.385Z,4.22
2022-10-06T05:19:36.191Z,3.95
2022-10-06T05:22:04.831Z,4.35
2022-10-06T05:24:35.519Z,3.50
2022-10-06T05:27:06.452Z,5.38
2022-10-06T05:29:36.075Z,3.28
2022-10-06T05:32:06.502Z,3.22
2022-10-06T05:34:35.903Z,2.70
2022-10-06T05:37:04.284Z,2.55
2022-10-06T05:39:32.580Z,6.20
2022-10-06T05:42:03.167Z,2.72
2022-10-06T05:44:31.483Z,7.43
2022-10-06T05:47:02.903Z,5.10
2022-10-06T05:49:31.222Z,9.90
2022-10-06T05:52:05.320Z,4.82
2022-10-06T05:54:35.851Z,4.25
2022-10-06T05:57:05.629Z,6.10
2022-10-06T05:59:35.212Z,5.68
2022-10-06T06:02:05.096Z,5.65
2022-10-06T06:04:38.571Z,8.40
2022-10-06T06:07:07.356Z,4.53
2022-10-06T06:09:35.739Z,4.78
2022-10-06T06:12:07.236Z,4.70
2022-10-06T06:15:08.499Z,4.70
2022-10-06T06:17:59.387Z,3.50
2022-10-06T06:20:27.788Z,4.40
2022-10-06T06:22:56.143Z,5.22
2022-10-06T06:25:27.860Z,7.38
2022-10-06T06:27:58.165Z,7.47
2022-10-06T06:30:27.205Z,5.35
2022-10-06T06:33:00.340Z,2.97
2022-10-06T06:35:29.442Z,13.48
2022-10-06T06:37:59.357Z,9.63
2022-10-06T06:40:27.921Z,4.72
2022-10-06T06:42:57.672Z,6.78
2022-10-06T06:45:40.586Z,4.90
2022-10-06T06:48:26.584Z,6.80
2022-10-06T06:50:59.190Z,7.28
2022-10-06T06:53:30.660Z,4.88
2022-10-06T06:56:01.658Z,2.85
2022-10-06T06:58:33.959Z,3.70
2022-10-06T07:01:06.409Z,4.95
2022-10-06T07:03:58.088Z,4.82
2022-10-06T07:06:28.086Z,3.17
2022-10-06T07:08:58.103Z,3.80
2022-10-06T07:11:27.419Z,5.18
2022-10-06T07:13:58.616Z,6.18
2022-10-06T07:16:44.402Z,5.30
2022-10-06T07:19:30.646Z,8.65
2022-10-06T07:22:17.994Z,3.42
2022-10-06T07:25:04.248Z,6.05
2022-10-06T07:27:34.065Z,4.60
2022-10-06T07:30:03.759Z,9.20
2022-10-06T07:32:32.934Z,4.53
2022-10-06T07:35:01.345Z,4.18
2022-10-06T07:37:30.008Z,5.60
2022-10-06T07:40:00.293Z,7.35
2022-10-06T07:42:28.712Z,6.53
2022-10-06T07:45:14.712Z,4.82
2022-10-06T07:47:44.429Z,3.75
2022-10-06T07:50:12.993Z,12.73
2022-10-06T07:52:41.994Z,19.23
2022-10-06T07:55:11.852Z,4.88
2022-10-06T07:57:46.281Z,4.78
2022-10-06T08:00:16.363Z,7.20
2022-10-06T08:02:46.231Z,6.97
2022-10-06T08:05:14.881Z,5.80
2022-10-06T08:07:43.192Z,5.68
2022-10-06T08:10:11.773Z,7.22
2022-10-06T08:12:40.881Z,6.63
2022-10-06T08:15:11.670Z,6.85
2022-10-06T08:17:39.975Z,7.30
2022-10-06T08:20:11.027Z,11.32
2022-10-06T08:22:39.948Z,8.10
2022-10-06T08:25:09.871Z,3.72
2022-10-06T08:27:40.319Z,6.28
2022-10-06T08:30:09.410Z,4.47
2022-10-06T08:32:37.745Z,3.97
2022-10-06T08:35:06.304Z,7.50
2022-10-06T08:37:35.915Z,4.32
2022-10-06T08:40:04.356Z,11.95
2022-10-06T08:42:37.741Z,4.53
2022-10-06T08:45:08.206Z,8.27
2022-10-06T08:47:37.252Z,6.68
2022-10-06T08:50:07.188Z,5.00
2022-10-06T08:52:47.751Z,14.68
2022-10-06T08:55:20.884Z,38.05
2022-10-06T08:57:53.852Z,5.82
2022-10-06T09:00:22.825Z,4.50
2022-10-06T09:02:51.779Z,4.85
2022-10-06T09:05:25.323Z,7.68
2022-10-06T09:08:01.313Z,7.57
2022-10-06T09:10:39.764Z,8.93
2022-10-06T09:13:10.829Z,5.00
2022-10-06T09:15:41.825Z,5.95
2022-10-06T09:18:14.352Z,4.43
2022-10-06T09:20:46.994Z,6.07
2022-10-06T09:23:38.667Z,6.78
2022-10-06T09:26:07.749Z,9.85
2022-10-06T09:28:37.383Z,6.28
2022-10-06T09:31:05.792Z,9.80
2022-10-06T09:33:39.122Z,7.22
2022-10-06T09:36:12.712Z,29.55
2022-10-06T09:38:52.627Z,11.63
2022-10-06T09:41:22.105Z,8.00
2022-10-06T09:43:58.538Z,39.33
2022-10-06T09:46:32.023Z,5.93
2022-10-06T09:49:14.885Z,6.38
2022-10-06T09:51:43.249Z,6.18
2022-10-06T09:54:15.091Z,6.35
2022-10-06T09:56:44.745Z,11.55
2022-10-06T09:59:21.121Z,6.43
2022-10-06T10:01:53.429Z,12.32
2022-10-06T10:04:24.544Z,40.10
2022-10-06T10:06:53.350Z,7.85
2022-10-06T10:09:26.230Z,9.63
2022-10-06T10:12:31.192Z,7.82
2022-10-06T10:15:03.960Z,5.80
2022-10-06T10:17:34.504Z,5.50
2022-10-06T10:20:04.169Z,13.90
2022-10-06T10:22:35.859Z,13.77
2022-10-06T10:25:13.743Z,10.98
2022-10-06T10:27:51.184Z,9.07
2022-10-06T10:30:20.133Z,7.60
2022-10-06T10:32:54.341Z,12.32
2022-10-06T10:35:24.826Z,7.75
2022-10-06T10:37:55.158Z,8.13
2022-10-06T10:40:30.442Z,9.32
2022-10-06T10:43:03.744Z,7.43
2022-10-06T10:45:33.925Z,5.32
2022-10-06T10:48:02.921Z,7.90
2022-10-06T10:50:33.732Z,7.35
2022-10-06T10:53:04.284Z,23.38
2022-10-06T10:55:37.734Z,5.93
2022-10-06T10:58:09.884Z,5.93
2022-10-06T11:00:40.535Z,5.70
2022-10-06T11:03:11.464Z,7.25
2022-10-06T11:05:54.412Z,12.48
2022-10-06T11:08:26.142Z,9.80
2022-10-06T11:10:59.194Z,7.82
2022-10-06T11:13:31.849Z,5.25
2022-10-06T11:16:23.434Z,7.60
2022-10-06T11:18:57.306Z,6.05
2022-10-06T11:21:28.990Z,5.68
2022-10-06T11:23:58.960Z,8.13
2022-10-06T11:26:48.883Z,132.98
2022-10-06T11:29:23.133Z,23.85
2022-10-06T11:31:56.601Z,47.90
2022-10-06T11:34:24.965Z,66.30
2022-10-06T11:36:57.418Z,9.35
2022-10-06T11:39:31.609Z,8.85
2022-10-06T11:42:04.760Z,8.02
2022-10-06T11:44:37.043Z,5.15
2022-10-06T11:47:07.397Z,6.60
2022-10-06T11:49:54.820Z,6.18
2022-10-06T11:52:56.813Z,19.20
2022-10-06T11:55:28.754Z,5.05
2022-10-06T12:01:09.165Z,6.82
2022-10-06T12:03:56.506Z,8.02
2022-10-06T12:06:50.373Z,5.18
2022-10-06T12:09:38.075Z,8.00
2022-10-06T12:12:30.384Z,7.32
2022-10-06T12:17:05.092Z,7.90
2022-10-06T12:17:56.721Z,8.13
2022-10-06T12:20:30.734Z,5.47
2022-10-06T12:23:03.718Z,5.85
2022-10-06T12:25:34.517Z,3.90
2022-10-06T12:28:10.859Z,4.20
2022-10-06T12:30:49.208Z,5.38
2022-10-06T12:33:18.399Z,8.15
2022-10-06T12:35:47.497Z,8.10
2022-10-06T12:38:33.904Z,4.95
2022-10-06T12:41:02.403Z,6.95
2022-10-06T12:43:48.376Z,7.93
2022-10-06T12:46:22.806Z,12.55
2022-10-06T12:48:55.428Z,9.13
2022-10-06T12:51:26.396Z,4.03
2022-10-06T12:53:59.028Z,5.90
2022-10-06T12:56:29.443Z,8.88
2022-10-06T12:58:58.299Z,9.75
2022-10-06T13:01:28.895Z,7.63
2022-10-06T13:03:57.309Z,5.55
2022-10-06T13:06:26.800Z,5.68
2022-10-06T13:09:06.339Z,9.63
2022-10-06T13:11:34.716Z,5.38
2022-10-06T13:14:10.305Z,11.43
2022-10-06T13:16:41.106Z,9.00
2022-10-06T13:19:16.232Z,6.95
2022-10-06T13:21:45.100Z,13.07
2022-10-06T13:24:14.267Z,7.63
2022-10-06T13:26:42.906Z,19.25
2022-10-06T13:29:18.188Z,10.85
2022-10-06T13:31:52.943Z,9.95
2022-10-06T13:34:25.087Z,6.78
2022-10-06T13:36:54.150Z,9.00
2022-10-06T13:39:23.471Z,7.35
2022-10-06T13:41:53.780Z,6.15
2022-10-06T13:44:34.746Z,5.95
2022-10-06T13:47:06.589Z,21.55
2022-10-06T13:49:35.800Z,6.07
2022-10-06T13:52:10.016Z,9.57
2022-10-06T13:54:42.723Z,5.57
2022-10-06T13:57:30.863Z,3.20
2022-10-06T14:00:07.820Z,26.50
2022-10-06T14:02:38.360Z,7.25
2022-10-06T14:05:26.865Z,3.95
2022-10-06T14:07:56.417Z,5.55
2022-10-06T14:10:27.258Z,5.05
2022-10-06T14:12:55.646Z,4.63
2022-10-06T14:15:26.919Z,7.68
2022-10-06T14:17:57.553Z,6.50
2022-10-06T14:20:37.453Z,5.20
2022-10-06T14:23:20.639Z,6.57
2022-10-06T14:25:50.683Z,5.00
2022-10-06T14:28:19.435Z,4.80
2022-10-06T14:30:47.809Z,3.25
2022-10-06T14:33:17.872Z,3.83
2022-10-06T14:35:46.202Z,6.00
2022-10-06T14:38:14.773Z,7.07
2022-10-06T14:40:43.416Z,4.75
2022-10-06T14:43:11.836Z,6.03
2022-10-06T14:45:45.987Z,7.45
2022-10-06T14:48:15.943Z,5.13
2022-10-06T14:50:46.731Z,12.25
2022-10-06T14:53:17.200Z,8.13
2022-10-06T14:55:45.840Z,4.80
2022-10-06T14:58:14.280Z,6.70
2022-10-06T15:00:44.104Z,6.88
2022-10-06T15:03:12.531Z,6.28
2022-10-06T15:06:01.159Z,5.13
2022-10-06T15:08:30.649Z,4.07
2022-10-06T15:11:01.399Z,6.18
2022-10-06T15:13:31.939Z,4.22
2022-10-06T15:16:00.459Z,4.25
2022-10-06T15:18:28.769Z,6.25
2022-10-06T15:21:03.730Z,4.00
2022-10-06T15:23:33.469Z,6.72
2022-10-06T15:26:19.436Z,5.35
2022-10-06T15:29:02.820Z,3.42
2022-10-06T15:31:32.488Z,11.77
2022-10-06T15:34:02.119Z,4.07
2022-10-06T15:36:32.946Z,7.38
2022-10-06T15:39:07.846Z,5.38
2022-10-06T15:41:36.864Z,3.33
2022-10-06T15:44:05.878Z,7.15
2022-10-06T15:46:37.063Z,6.55
2022-10-06T15:49:06.469Z,6.95
2022-10-06T15:51:37.411Z,4.47
2022-10-06T15:54:07.325Z,5.22
2022-10-06T15:56:37.103Z,6.80
2022-10-06T15:59:06.047Z,4.95
2022-10-06T16:01:43.289Z,6.88
2022-10-06T16:04:26.499Z,8.38
2022-10-06T16:06:56.036Z,7.10
2022-10-06T16:09:26.471Z,3.75
2022-10-06T16:11:55.083Z,7.38
2022-10-06T16:14:23.582Z,3.58
2022-10-06T16:16:52.315Z,4.47
2022-10-06T16:19:21.093Z,6.10
2022-10-06T16:21:49.971Z,7.47
2022-10-06T16:24:18.629Z,6.82
2022-10-06T16:26:48.530Z,6.13
2022-10-06T16:29:17.372Z,7.10
2022-10-06T16:31:45.764Z,3.88
2022-10-06T16:34:14.901Z,9.02
2022-10-06T16:36:43.543Z,5.30
2022-10-06T16:39:14.023Z,10.38
2022-10-06T16:41:43.472Z,4.10
2022-10-06T16:44:13.162Z,6.65
2022-10-06T16:46:41.737Z,6.15
2022-10-06T16:49:10.092Z,4.97
2022-10-06T16:51:38.962Z,4.10
2022-10-06T16:54:07.940Z,4.22
2022-10-06T16:56:37.815Z,8.65
2022-10-06T16:59:08.073Z,4.97
2022-10-06T17:01:38.201Z,6.40
2022-10-06T17:04:07.686Z,5.07
2022-10-06T17:06:39.028Z,5.88
2022-10-06T17:09:08.372Z,5.13
2022-10-06T17:11:37.176Z,4.95
2022-10-06T17:14:05.890Z,5.75
2022-10-06T17:16:35.269Z,4.55
2022-10-06T17:19:05.769Z,7.68
2022-10-06T17:21:54.169Z,5.32
2022-10-06T17:24:25.377Z,4.65
2022-10-06T17:26:53.751Z,5.72
2022-10-06T17:29:23.027Z,5.90
2022-10-06T17:31:53.248Z,3.88
2022-10-06T17:34:26.477Z,5.00
2022-10-06T17:36:56.248Z,5.43
2022-10-06T17:39:25.302Z,3.38
2022-10-06T17:41:54.084Z,5.90
2022-10-06T17:44:24.122Z,9.35
2022-10-06T17:46:53.752Z,7.75
2022-10-06T17:49:24.698Z,4.13
2022-10-06T17:51:53.758Z,7.00
2022-10-06T17:54:23.173Z,6.45
2022-10-06T17:56:52.072Z,7.15
2022-10-06T17:59:21.995Z,5.55
2022-10-06T18:01:51.664Z,4.43
2022-10-06T18:04:20.896Z,3.05
2022-10-06T18:06:52.881Z,4.43
2022-10-06T18:09:21.904Z,3.47
2022-10-06T18:11:54.699Z,4.47
2022-10-06T18:14:23.637Z,5.80
2022-10-06T18:16:56.250Z,4.35
2022-10-06T18:19:26.741Z,6.95
2022-10-06T18:21:57.533Z,10.85
2022-10-06T18:24:27.253Z,6.88
2022-10-06T18:26:56.318Z,7.70
2022-10-06T18:29:25.584Z,5.75
2022-10-06T18:31:54.783Z,4.22
2022-10-06T18:37:12.902Z,4.85
2022-10-06T18:39:41.508Z,7.80
2022-10-06T18:42:14.415Z,6.25
2022-10-06T18:45:00.229Z,5.25
2022-10-06T18:47:46.238Z,6.10
2022-10-06T18:50:14.592Z,7.68
2022-10-06T18:52:44.221Z,13.57
2022-10-06T18:55:13.192Z,15.48
2022-10-06T18:57:41.718Z,10.55
2022-10-06T19:00:10.926Z,5.97
2022-10-06T19:02:39.234Z,6.35
2022-10-06T19:05:08.024Z,6.00
2022-10-06T19:07:36.329Z,5.40
2022-10-06T19:10:06.333Z,9.00
2022-10-06T19:12:34.731Z,9.18
2022-10-06T19:15:03.084Z,8.25
2022-10-06T19:17:32.179Z,12.88
2022-10-06T19:20:00.468Z,11.68
2022-10-06T19:22:28.874Z,9.90
2022-10-06T19:24:57.213Z,8.90
2022-10-06T19:27:28.864Z,11.13
2022-10-06T19:29:57.588Z,6.55
2022-10-06T19:32:27.190Z,6.50
2022-10-06T19:34:58.028Z,9.85
2022-10-06T19:37:27.068Z,11.60
2022-10-06T19:39:55.643Z,9.38
2022-10-06T19:42:41.596Z,16.52
2022-10-06T19:45:13.836Z,16.08
2022-10-06T19:47:42.635Z,16.85
2022-10-06T19:50:12.805Z,17.50
2022-10-06T19:52:41.607Z,8.00
2022-10-06T19:55:10.326Z,8.63
2022-10-06T19:57:38.677Z,8.93
2022-10-06T20:00:08.133Z,8.93
2022-10-06T20:02:44.148Z,24.60
2022-10-06T20:05:13.266Z,8.70
2022-10-06T20:07:42.311Z,12.07
2022-10-06T20:10:11.902Z,7.78
2022-10-06T20:12:41.276Z,7.57
2022-10-06T20:15:10.744Z,5.50
2022-10-06T20:17:41.547Z,25.58
2022-10-06T20:20:11.949Z,10.50
2022-10-06T20:22:40.293Z,8.05
2022-10-06T20:25:08.723Z,9.40
2022-10-06T20:27:37.092Z,7.68
2022-10-06T20:30:05.683Z,14.15
2022-10-06T20:32:33.971Z,11.13
2022-10-06T20:35:04.779Z,10.10
2022-10-06T20:37:34.462Z,8.50
2022-10-06T20:40:25.814Z,5.85
2022-10-06T20:42:54.779Z,11.13
2022-10-06T20:45:23.399Z,25.55
2022-10-06T20:47:51.747Z,40.28
2022-10-06T20:50:20.064Z,50.70
2022-10-06T20:52:50.050Z,283.77
2022-10-06T20:55:18.409Z,163.80
2022-10-06T20:57:47.063Z,54.45
2022-10-06T21:00:16.207Z,19.65
2022-10-06T21:02:45.171Z,11.23
2022-10-06T21:05:13.761Z,11.63
2022-10-06T21:07:42.888Z,181.60
2022-10-06T21:10:12.928Z,96.97
2022-10-06T21:12:42.378Z,115.13
2022-10-06T21:15:11.275Z,107.90
2022-10-06T21:17:42.314Z,123.65
2022-10-06T21:20:11.435Z,80.38
2022-10-06T21:22:39.897Z,112.35
2022-10-06T21:25:08.986Z,58.03
2022-10-06T21:27:40.286Z,96.30
2022-10-06T21:30:10.214Z,47.35
2022-10-06T21:32:38.910Z,49.83
2022-10-06T21:35:08.110Z,172.27
2022-10-06T21:37:36.561Z,81.75
2022-10-06T21:40:05.196Z,77.57
2022-10-06T21:42:33.642Z,64.25
2022-10-06T21:45:03.446Z,121.38
2022-10-06T21:47:31.952Z,124.97
2022-10-06T21:50:00.455Z,41.42
2022-10-06T21:52:28.885Z,21.02
2022-10-06T21:54:57.358Z,67.32
2022-10-06T21:57:25.786Z,23.80
2022-10-06T21:59:54.239Z,15.13
2022-10-06T22:02:24.096Z,10.85
2022-10-06T22:04:52.586Z,13.75
2022-10-06T22:07:21.020Z,11.70
2022-10-06T22:09:49.502Z,11.60
2022-10-06T22:12:17.937Z,18.42
2022-10-06T22:14:46.412Z,16.30
2022-10-06T22:17:14.844Z,14.77
2022-10-06T22:19:44.642Z,14.98
2022-10-06T22:22:13.082Z,11.32
2022-10-06T22:24:41.554Z,10.43
2022-10-06T22:27:10.009Z,9.43
2022-10-06T22:29:38.471Z,11.98
2022-10-06T22:32:06.937Z,11.27
2022-10-06T22:34:35.656Z,14.55
2022-10-06T22:37:05.438Z,10.73
2022-10-06T22:39:33.871Z,11.55
2022-10-06T22:42:02.769Z,13.63
2022-10-06T22:44:31.220Z,15.43
2022-10-06T22:46:59.757Z,12.43
2022-10-06T22:49:28.224Z,9.27
2022-10-06T22:51:56.669Z,13.75
2022-10-06T22:54:29.988Z,12.60
2022-10-06T22:56:58.476Z,10.90
2022-10-06T22:59:27.017Z,10.23
2022-10-06T23:01:55.465Z,12.75
2022-10-06T23:04:24.509Z,9.98
2022-10-06T23:06:53.283Z,15.63
2022-10-06T23:09:21.728Z,8.32
2022-10-06T23:11:51.554Z,8.10
2022-10-06T23:14:20.039Z,13.23
2022-10-06T23:16:48.509Z,9.20
2022-10-06T23:19:16.962Z,8.93
2022-10-06T23:21:45.495Z,9.23
2022-10-06T23:24:13.922Z,11.23
2022-10-06T23:26:42.369Z,10.95
2022-10-06T23:29:12.557Z,9.43
2022-10-06T23:31:41.007Z,9.18
2022-10-06T23:34:09.458Z,10.15
2022-10-06T23:36:39.102Z,9.88
2022-10-06T23:39:07.875Z,10.15
2022-10-06T23:41:36.326Z,9.02
2022-10-06T23:44:04.746Z,9.85
2022-10-06T23:46:34.538Z,9.88
2022-10-06T23:49:03.423Z,11.90
2022-10-06T23:51:31.926Z,8.50
2022-10-06T23:54:00.362Z,11.65
2022-10-06T23:56:28.807Z,11.02
2022-10-06T23:58:57.264Z,12.27
